createdAt,value
2022-08-11T00:01:07.128Z,2.25
2022-08-11T00:07:10.636Z,2.10
2022-08-11T00:13:13.299Z,1.70
2022-08-11T00:20:11.645Z,2.03
2022-08-11T00:25:54.663Z,2.13
2022-08-11T00:31:58.425Z,1.85
2022-08-11T00:38:01.258Z,1.88
2022-08-11T00:44:24.344Z,1.60
2022-08-11T00:50:46.083Z,2.15
2022-08-11T00:57:36.819Z,1.83
2022-08-11T01:04:14.938Z,1.85
2022-08-11T01:10:41.377Z,2.42
2022-08-11T01:17:09.847Z,1.88
2022-08-11T01:23:17.417Z,1.95
2022-08-11T01:29:40.917Z,1.80
2022-08-11T01:36:02.649Z,1.70
2022-08-11T01:42:53.875Z,1.88
2022-08-11T01:50:09.289Z,2.05
2022-08-11T01:56:05.665Z,1.85
2022-08-11T02:02:44.404Z,1.70
2022-08-11T02:08:59.085Z,1.70
2022-08-11T02:15:20.448Z,1.80
2022-08-11T02:21:55.584Z,2.00
2022-08-11T02:28:15.881Z,1.77
2022-08-11T02:34:59.311Z,1.40
2022-08-11T02:41:44.788Z,1.65
2022-08-11T02:48:26.300Z,1.60
2022-08-11T02:54:42.401Z,1.75
2022-08-11T03:00:53.888Z,2.00
2022-08-11T03:07:28.481Z,2.00
2022-08-11T03:13:53.052Z,1.50
2022-08-11T03:20:15.436Z,1.98
2022-08-11T03:26:42.932Z,1.80
2022-08-11T03:33:21.392Z,1.80
2022-08-11T03:39:33.657Z,1.55
2022-08-11T03:46:10.939Z,2.05
2022-08-11T03:52:49.793Z,1.70
2022-08-11T03:59:09.285Z,1.70
2022-08-11T04:05:46.429Z,2.10
2022-08-11T04:12:07.002Z,1.60
2022-08-11T04:18:49.686Z,1.55
2022-08-11T04:24:59.358Z,1.92
2022-08-11T04:31:49.526Z,1.52
2022-08-11T04:37:55.627Z,1.85
2022-08-11T04:44:39.040Z,2.80
2022-08-11T04:51:26.987Z,3.03
2022-08-11T04:58:05.799Z,2.22
2022-08-11T05:04:31.957Z,2.38
2022-08-11T05:10:45.474Z,3.40
2022-08-11T05:17:16.657Z,2.75
2022-08-11T05:23:42.740Z,3.30
2022-08-11T05:30:25.388Z,2.83
2022-08-11T05:36:50.639Z,4.43
2022-08-11T05:43:18.451Z,4.57
2022-08-11T05:49:38.976Z,4.38
2022-08-11T05:56:03.707Z,5.50
2022-08-11T06:02:08.653Z,5.13
2022-08-11T06:08:12.426Z,7.80
2022-08-11T06:14:15.748Z,6.30
2022-08-11T06:20:19.486Z,5.88
2022-08-11T06:26:22.135Z,4.72
2022-08-11T06:32:31.461Z,6.80
2022-08-11T06:39:10.966Z,4.80
2022-08-11T06:45:31.127Z,3.63
2022-08-11T06:51:38.560Z,2.85
2022-08-11T06:58:13.491Z,3.08
2022-08-11T07:04:32.745Z,3.15
2022-08-11T07:11:17.410Z,2.40
2022-08-11T07:17:23.875Z,2.60
2022-08-11T07:23:46.292Z,2.05
2022-08-11T07:29:51.247Z,3.42
2022-08-11T07:35:56.675Z,3.13
2022-08-11T07:42:00.994Z,3.75
2022-08-11T07:48:21.657Z,4.72
2022-08-11T07:54:24.040Z,4.53
2022-08-11T08:00:51.821Z,3.70
2022-08-11T08:07:13.441Z,3.40
2022-08-11T08:13:34.723Z,3.47
2022-08-11T08:19:38.504Z,6.13
2022-08-11T08:25:43.454Z,4.72
2022-08-11T08:31:46.733Z,4.40
2022-08-11T08:37:52.664Z,2.90
2022-08-11T08:44:20.632Z,4.20
2022-08-11T08:52:25.363Z,4.28
2022-08-11T08:56:49.103Z,4.75
2022-08-11T09:02:52.066Z,5.32
2022-08-11T09:08:55.397Z,4.22
2022-08-11T09:15:03.493Z,3.53
2022-08-11T09:21:06.073Z,4.43
2022-08-11T09:27:08.749Z,4.20
2022-08-11T09:33:13.946Z,4.13
2022-08-11T09:39:35.028Z,4.55
2022-08-11T09:45:40.559Z,4.10
2022-08-11T09:51:42.724Z,3.80
2022-08-11T09:58:41.879Z,3.45
2022-08-11T10:04:47.230Z,3.30
2022-08-11T10:10:50.101Z,3.40
2022-08-11T10:16:53.045Z,2.97
2022-08-11T10:23:18.566Z,9.02
2022-08-11T10:29:52.413Z,2.80
2022-08-11T10:35:54.528Z,2.30
2022-08-11T10:42:29.957Z,2.85
2022-08-11T10:48:39.111Z,2.92
2022-08-11T10:55:01.368Z,2.28
2022-08-11T11:01:05.944Z,2.55
2022-08-11T11:07:24.279Z,2.50
2022-08-11T11:13:55.308Z,2.20
2022-08-11T11:20:00.720Z,2.47
2022-08-11T11:26:14.160Z,2.50
2022-08-11T11:32:32.974Z,2.17
2022-08-11T11:38:35.472Z,2.40
2022-08-11T11:44:38.908Z,2.25
2022-08-11T11:50:41.107Z,2.35
2022-08-11T11:56:46.672Z,3.05
2022-08-11T12:02:50.323Z,2.50
2022-08-11T12:08:55.632Z,2.58
2022-08-11T12:14:58.184Z,2.40
2022-08-11T12:21:01.708Z,2.00
2022-08-11T12:27:24.873Z,2.38
2022-08-11T12:33:28.080Z,2.47
2022-08-11T12:40:16.239Z,2.70
2022-08-11T12:46:22.936Z,2.38
2022-08-11T12:52:27.656Z,3.10
2022-08-11T12:58:29.950Z,3.35
2022-08-11T13:04:50.828Z,2.85
2022-08-11T13:11:13.163Z,2.30
2022-08-11T13:17:43.703Z,2.28
2022-08-11T13:24:01.752Z,2.25
2022-08-11T13:30:23.774Z,2.40
2022-08-11T13:36:28.689Z,1.90
2022-08-11T13:42:31.336Z,2.30
2022-08-11T13:48:33.523Z,2.60
2022-08-11T13:54:41.226Z,2.10
2022-08-11T14:00:52.561Z,2.00
2022-08-11T14:06:55.537Z,1.88
2022-08-11T14:13:41.368Z,2.30
2022-08-11T14:19:48.060Z,2.15
2022-08-11T14:26:09.106Z,2.40
2022-08-11T14:32:12.552Z,1.80
2022-08-11T14:38:14.668Z,2.20
2022-08-11T14:44:35.749Z,2.50
2022-08-11T14:50:38.000Z,2.20
2022-08-11T14:56:41.233Z,1.83
2022-08-11T15:03:01.591Z,2.53
2022-08-11T15:09:09.117Z,2.90
2022-08-11T15:15:31.034Z,2.85
2022-08-11T15:21:51.694Z,2.70
2022-08-11T15:28:13.587Z,2.28
2022-08-11T15:34:37.547Z,2.50
2022-08-11T15:41:00.571Z,2.80
2022-08-11T15:47:05.948Z,2.25
2022-08-11T15:53:20.418Z,2.67
2022-08-11T15:59:43.998Z,2.90
2022-08-11T16:05:52.865Z,2.58
2022-08-11T16:11:59.577Z,2.53
2022-08-11T16:18:05.477Z,3.30
2022-08-11T16:26:21.355Z,2.95
2022-08-11T16:30:33.906Z,3.25
2022-08-11T16:37:00.214Z,3.80
2022-08-11T16:43:24.374Z,4.45
2022-08-11T16:49:34.182Z,4.00
2022-08-11T16:55:52.390Z,3.65
2022-08-11T17:02:02.372Z,4.10
2022-08-11T17:08:26.032Z,3.83
2022-08-11T17:14:58.644Z,4.05
2022-08-11T17:21:02.570Z,4.10
2022-08-11T17:27:07.627Z,3.53
2022-08-11T17:33:30.624Z,3.70
2022-08-11T17:39:33.720Z,3.67
2022-08-11T17:45:54.065Z,2.80
2022-08-11T17:52:14.518Z,3.03
2022-08-11T17:58:37.171Z,3.40
2022-08-11T18:04:42.107Z,3.10
2022-08-11T18:11:05.028Z,3.20
2022-08-11T18:17:25.584Z,3.05
2022-08-11T18:23:47.292Z,3.55
2022-08-11T18:30:10.397Z,2.97
2022-08-11T18:36:35.930Z,3.35
2022-08-11T18:43:00.546Z,2.88
2022-08-11T18:50:02.061Z,3.05
2022-08-11T18:56:17.047Z,3.05
2022-08-11T19:02:48.494Z,2.92
2022-08-11T19:09:17.603Z,2.20
2022-08-11T19:15:39.601Z,2.72
2022-08-11T19:22:01.100Z,2.30
2022-08-11T19:28:25.137Z,2.75
2022-08-11T19:34:46.012Z,3.10
2022-08-11T19:41:06.809Z,3.20
2022-08-11T19:47:28.614Z,3.47
2022-08-11T19:53:49.647Z,3.60
2022-08-11T20:00:10.329Z,3.05
2022-08-11T20:06:33.541Z,3.38
2022-08-11T20:12:57.253Z,3.05
2022-08-11T20:19:20.383Z,3.30
2022-08-11T20:25:47.602Z,3.55
2022-08-11T20:32:09.359Z,3.65
2022-08-11T20:38:33.274Z,3.33
2022-08-11T20:44:56.435Z,3.60
2022-08-11T20:51:18.254Z,4.22
2022-08-11T20:57:59.915Z,3.95
2022-08-11T21:04:20.080Z,4.30
2022-08-11T21:10:42.012Z,4.43
2022-08-11T21:17:04.535Z,4.03
2022-08-11T21:23:46.616Z,4.70
2022-08-11T21:30:08.482Z,4.60
2022-08-11T21:36:29.442Z,3.90
2022-08-11T21:42:53.333Z,4.32
2022-08-11T21:49:15.933Z,3.83
2022-08-11T21:55:39.905Z,3.65
2022-08-11T22:02:01.483Z,3.47
2022-08-11T22:08:22.066Z,3.42
2022-08-11T22:14:42.548Z,4.15
2022-08-11T22:21:03.610Z,4.15
2022-08-11T22:27:24.039Z,3.83
2022-08-11T22:34:02.259Z,3.90
2022-08-11T22:40:24.753Z,2.95
2022-08-11T22:46:45.778Z,3.33
2022-08-11T22:53:09.528Z,3.08
2022-08-11T22:59:30.047Z,3.40
2022-08-11T23:05:51.087Z,2.90
2022-08-11T23:12:12.710Z,3.35
2022-08-11T23:18:34.302Z,2.67
2022-08-11T23:24:54.738Z,2.80
2022-08-11T23:31:15.778Z,3.45
2022-08-11T23:37:36.364Z,3.38
2022-08-11T23:43:57.172Z,2.90
2022-08-11T23:50:17.936Z,2.97
2022-08-11T23:56:38.354Z,3.40
